Abiquiu, New Mexico
Current Conditions -  °F | °C
As of 6:55 PM on Saturday 25 Oct 2014 (Local Time) from KLAM Reporting Station
Clear Clear  
Wind Chill: 19°   Ceiling: Unl
Heat Index: 19°   Visibility: 10mi
Dew Point: -5°   Wind: 8mph
Humidity: 20%   Direction: 260°W
Pressure: 30.28"   Gusts: NA
Location:  36.21°N, 106.32°W
Report Text: KLAM 260055Z AUTO 26007KT 10SM CLR 19/M05 A3028 RMK AO2 T01941046
Loading
Personal Weather Stations






























Interactive Weather Map
Tropical Storm Tracking
New forecast layout! Learn more

10-Day Weather Forecast

Advertisements
Track Severe Weather on mobile